sensor_id;sensor_type;location;lat;lon;timestamp;temperature;humidity
35700;DHT22;21818;51.078;12.108;2022-10-17T00:01:32;19.00;93.40
35700;DHT22;21818;51.078;12.108;2022-10-17T00:03:58;19.00;93.40
35700;DHT22;21818;51.078;12.108;2022-10-17T00:06:23;19.00;93.40
35700;DHT22;21818;51.078;12.108;2022-10-17T00:08:49;19.00;93.40
35700;DHT22;21818;51.078;12.108;2022-10-17T00:11:18;19.00;93.40
35700;DHT22;21818;51.078;12.108;2022-10-17T00:13:46;19.00;93.50
35700;DHT22;21818;51.078;12.108;2022-10-17T00:16:12;19.00;93.50
35700;DHT22;21818;51.078;12.108;2022-10-17T00:18:38;19.00;93.50
35700;DHT22;21818;51.078;12.108;2022-10-17T00:21:03;19.00;93.50
35700;DHT22;21818;51.078;12.108;2022-10-17T00:23:29;19.00;93.50
35700;DHT22;21818;51.078;12.108;2022-10-17T00:26:03;19.00;93.50
35700;DHT22;21818;51.078;12.108;2022-10-17T00:28:29;19.00;93.50
35700;DHT22;21818;51.078;12.108;2022-10-17T00:30:56;19.00;93.50
35700;DHT22;21818;51.078;12.108;2022-10-17T00:33:22;19.00;93.60
35700;DHT22;21818;51.078;12.108;2022-10-17T00:35:48;19.00;93.60
35700;DHT22;21818;51.078;12.108;2022-10-17T00:38:13;19.00;93.50
35700;DHT22;21818;51.078;12.108;2022-10-17T00:40:39;19.00;93.50
35700;DHT22;21818;51.078;12.108;2022-10-17T00:43:16;19.00;93.50
35700;DHT22;21818;51.078;12.108;2022-10-17T00:45:42;19.00;93.60
35700;DHT22;21818;51.078;12.108;2022-10-17T00:48:10;19.00;93.50
35700;DHT22;21818;51.078;12.108;2022-10-17T00:50:37;19.00;93.60
35700;DHT22;21818;51.078;12.108;2022-10-17T00:53:05;19.00;93.60
35700;DHT22;21818;51.078;12.108;2022-10-17T00:55:34;19.00;93.60
35700;DHT22;21818;51.078;12.108;2022-10-17T00:58:03;19.00;93.50
35700;DHT22;21818;51.078;12.108;2022-10-17T01:00:30;19.10;93.50
35700;DHT22;21818;51.078;12.108;2022-10-17T01:02:55;19.10;93.50
35700;DHT22;21818;51.078;12.108;2022-10-17T01:05:21;19.00;93.80
35700;DHT22;21818;51.078;12.108;2022-10-17T01:07:48;19.00;93.60
35700;DHT22;21818;51.078;12.108;2022-10-17T01:10:15;19.00;93.60
35700;DHT22;21818;51.078;12.108;2022-10-17T01:13:07;19.00;93.60
35700;DHT22;21818;51.078;12.108;2022-10-17T01:15:37;19.00;93.60
35700;DHT22;21818;51.078;12.108;2022-10-17T01:24:13;19.00;93.50
35700;DHT22;21818;51.078;12.108;2022-10-17T01:32:07;19.00;93.50
35700;DHT22;21818;51.078;12.108;2022-10-17T01:34:46;19.00;93.40
35700;DHT22;21818;51.078;12.108;2022-10-17T01:37:19;18.90;93.40
35700;DHT22;21818;51.078;12.108;2022-10-17T01:39:52;18.90;93.40
35700;DHT22;21818;51.078;12.108;2022-10-17T01:45:02;18.80;93.40
35700;DHT22;21818;51.078;12.108;2022-10-17T01:47:32;18.80;93.40
35700;DHT22;21818;51.078;12.108;2022-10-17T01:50:06;18.70;93.40
35700;DHT22;21818;51.078;12.108;2022-10-17T01:52:42;18.70;93.40
35700;DHT22;21818;51.078;12.108;2022-10-17T01:55:14;18.70;93.40
35700;DHT22;21818;51.078;12.108;2022-10-17T01:57:51;18.70;93.40
35700;DHT22;21818;51.078;12.108;2022-10-17T02:00:21;18.60;93.60
35700;DHT22;21818;51.078;12.108;2022-10-17T02:02:50;18.60;93.30
35700;DHT22;21818;51.078;12.108;2022-10-17T02:05:21;18.50;93.30
35700;DHT22;21818;51.078;12.108;2022-10-17T02:07:48;18.60;93.30
35700;DHT22;21818;51.078;12.108;2022-10-17T02:11:00;18.50;93.30
35700;DHT22;21818;51.078;12.108;2022-10-17T02:15:58;18.50;93.30
35700;DHT22;21818;51.078;12.108;2022-10-17T02:18:46;18.50;93.20
35700;DHT22;21818;51.078;12.108;2022-10-17T02:21:18;18.40;93.30
35700;DHT22;21818;51.078;12.108;2022-10-17T02:23:54;18.50;93.30
35700;DHT22;21818;51.078;12.108;2022-10-17T02:26:42;18.50;93.30
35700;DHT22;21818;51.078;12.108;2022-10-17T02:29:22;18.50;93.30
35700;DHT22;21818;51.078;12.108;2022-10-17T02:34:37;18.40;93.20
35700;DHT22;21818;51.078;12.108;2022-10-17T02:37:06;18.40;93.20
35700;DHT22;21818;51.078;12.108;2022-10-17T02:39:33;18.40;93.30
35700;DHT22;21818;51.078;12.108;2022-10-17T02:42:02;18.40;93.30
35700;DHT22;21818;51.078;12.108;2022-10-17T02:44:30;18.30;93.30
35700;DHT22;21818;51.078;12.108;2022-10-17T02:47:08;18.30;93.30
35700;DHT22;21818;51.078;12.108;2022-10-17T02:49:39;18.30;93.30
35700;DHT22;21818;51.078;12.108;2022-10-17T02:52:45;18.40;93.30
35700;DHT22;21818;51.078;12.108;2022-10-17T02:55:17;18.40;93.30
35700;DHT22;21818;51.078;12.108;2022-10-17T02:57:55;18.30;93.30
35700;DHT22;21818;51.078;12.108;2022-10-17T03:00:23;18.30;93.30
35700;DHT22;21818;51.078;12.108;2022-10-17T03:02:52;18.30;93.30
35700;DHT22;21818;51.078;12.108;2022-10-17T03:05:25;18.30;93.20
35700;DHT22;21818;51.078;12.108;2022-10-17T03:07:52;18.20;93.50
35700;DHT22;21818;51.078;12.108;2022-10-17T03:10:18;18.20;93.30
35700;DHT22;21818;51.078;12.108;2022-10-17T03:12:43;18.20;93.40
35700;DHT22;21818;51.078;12.108;2022-10-17T03:15:10;18.20;93.40
35700;DHT22;21818;51.078;12.108;2022-10-17T03:17:36;18.10;93.30
35700;DHT22;21818;51.078;12.108;2022-10-17T03:20:02;18.10;93.30
35700;DHT22;21818;51.078;12.108;2022-10-17T03:22:28;18.10;93.40
35700;DHT22;21818;51.078;12.108;2022-10-17T03:24:54;18.00;93.50
35700;DHT22;21818;51.078;12.108;2022-10-17T03:27:20;18.00;93.50
35700;DHT22;21818;51.078;12.108;2022-10-17T03:29:45;18.00;93.60
35700;DHT22;21818;51.078;12.108;2022-10-17T03:32:11;18.00;93.60
35700;DHT22;21818;51.078;12.108;2022-10-17T03:34:36;18.00;93.60
35700;DHT22;21818;51.078;12.108;2022-10-17T03:37:02;18.00;93.70
35700;DHT22;21818;51.078;12.108;2022-10-17T03:39:27;18.00;93.70
35700;DHT22;21818;51.078;12.108;2022-10-17T03:41:53;18.00;93.70
35700;DHT22;21818;51.078;12.108;2022-10-17T03:44:19;18.10;93.80
35700;DHT22;21818;51.078;12.108;2022-10-17T03:46:44;18.10;93.80
35700;DHT22;21818;51.078;12.108;2022-10-17T03:49:10;18.20;93.70
35700;DHT22;21818;51.078;12.108;2022-10-17T03:51:36;18.20;93.70
35700;DHT22;21818;51.078;12.108;2022-10-17T03:54:02;18.20;93.70
35700;DHT22;21818;51.078;12.108;2022-10-17T03:56:27;18.20;93.60
35700;DHT22;21818;51.078;12.108;2022-10-17T03:58:54;18.20;93.60
35700;DHT22;21818;51.078;12.108;2022-10-17T04:01:20;18.30;93.60
35700;DHT22;21818;51.078;12.108;2022-10-17T04:03:50;18.30;93.60
35700;DHT22;21818;51.078;12.108;2022-10-17T04:06:16;18.30;93.50
35700;DHT22;21818;51.078;12.108;2022-10-17T04:08:41;18.30;93.50
35700;DHT22;21818;51.078;12.108;2022-10-17T04:11:09;18.20;93.40
35700;DHT22;21818;51.078;12.108;2022-10-17T04:13:35;18.20;93.40
35700;DHT22;21818;51.078;12.108;2022-10-17T04:16:04;18.20;93.50
35700;DHT22;21818;51.078;12.108;2022-10-17T04:18:30;18.20;93.50
35700;DHT22;21818;51.078;12.108;2022-10-17T04:20:56;18.20;93.60
35700;DHT22;21818;51.078;12.108;2022-10-17T04:23:22;18.20;93.50
35700;DHT22;21818;51.078;12.108;2022-10-17T04:25:48;18.10;93.50
35700;DHT22;21818;51.078;12.108;2022-10-17T04:28:14;18.10;93.50
35700;DHT22;21818;51.078;12.108;2022-10-17T04:30:40;18.10;93.50
35700;DHT22;21818;51.078;12.108;2022-10-17T04:33:06;18.10;93.60
35700;DHT22;21818;51.078;12.108;2022-10-17T04:35:31;18.10;93.50
35700;DHT22;21818;51.078;12.108;2022-10-17T04:37:57;18.10;93.50
35700;DHT22;21818;51.078;12.108;2022-10-17T04:40:23;18.20;93.40
35700;DHT22;21818;51.078;12.108;2022-10-17T04:42:49;18.10;93.30
35700;DHT22;21818;51.078;12.108;2022-10-17T04:45:14;18.10;93.30
35700;DHT22;21818;51.078;12.108;2022-10-17T04:47:40;18.10;93.30
35700;DHT22;21818;51.078;12.108;2022-10-17T04:50:06;18.10;93.30
35700;DHT22;21818;51.078;12.108;2022-10-17T04:52:33;18.00;93.40
35700;DHT22;21818;51.078;12.108;2022-10-17T04:54:59;18.00;93.40
35700;DHT22;21818;51.078;12.108;2022-10-17T04:57:25;18.10;93.50
35700;DHT22;21818;51.078;12.108;2022-10-17T04:59:50;18.10;93.40
35700;DHT22;21818;51.078;12.108;2022-10-17T05:02:16;18.20;93.30
35700;DHT22;21818;51.078;12.108;2022-10-17T05:04:41;18.30;93.50
35700;DHT22;21818;51.078;12.108;2022-10-17T05:07:07;18.40;93.20
35700;DHT22;21818;51.078;12.108;2022-10-17T05:09:32;18.50;93.10
35700;DHT22;21818;51.078;12.108;2022-10-17T05:11:58;18.40;93.10
35700;DHT22;21818;51.078;12.108;2022-10-17T05:14:24;18.40;93.00
35700;DHT22;21818;51.078;12.108;2022-10-17T05:16:49;18.40;93.00
35700;DHT22;21818;51.078;12.108;2022-10-17T05:19:15;18.30;93.00
35700;DHT22;21818;51.078;12.108;2022-10-17T05:21:42;18.30;93.00
35700;DHT22;21818;51.078;12.108;2022-10-17T05:24:09;18.30;92.90
35700;DHT22;21818;51.078;12.108;2022-10-17T05:26:35;18.20;92.90
35700;DHT22;21818;51.078;12.108;2022-10-17T05:29:01;18.30;92.90
35700;DHT22;21818;51.078;12.108;2022-10-17T05:31:28;18.20;92.90
35700;DHT22;21818;51.078;12.108;2022-10-17T05:33:54;18.20;92.90
35700;DHT22;21818;51.078;12.108;2022-10-17T05:36:20;18.20;92.90
35700;DHT22;21818;51.078;12.108;2022-10-17T05:38:49;18.20;92.90
35700;DHT22;21818;51.078;12.108;2022-10-17T05:41:15;18.30;92.80
35700;DHT22;21818;51.078;12.108;2022-10-17T05:43:41;18.30;92.80
35700;DHT22;21818;51.078;12.108;2022-10-17T05:46:07;18.40;92.80
35700;DHT22;21818;51.078;12.108;2022-10-17T05:48:33;18.50;92.60
35700;DHT22;21818;51.078;12.108;2022-10-17T05:51:01;18.40;92.80
35700;DHT22;21818;51.078;12.108;2022-10-17T05:53:32;18.50;92.60
35700;DHT22;21818;51.078;12.108;2022-10-17T05:55:59;18.50;92.60
35700;DHT22;21818;51.078;12.108;2022-10-17T05:58:24;18.50;92.60
35700;DHT22;21818;51.078;12.108;2022-10-17T06:00:50;18.40;92.60
35700;DHT22;21818;51.078;12.108;2022-10-17T06:03:16;18.50;92.60
35700;DHT22;21818;51.078;12.108;2022-10-17T06:05:41;18.50;92.50
35700;DHT22;21818;51.078;12.108;2022-10-17T06:08:07;18.60;92.40
35700;DHT22;21818;51.078;12.108;2022-10-17T06:10:32;18.60;92.40
35700;DHT22;21818;51.078;12.108;2022-10-17T06:12:58;18.70;92.30
35700;DHT22;21818;51.078;12.108;2022-10-17T06:15:24;18.70;92.20
35700;DHT22;21818;51.078;12.108;2022-10-17T06:17:49;18.80;92.10
35700;DHT22;21818;51.078;12.108;2022-10-17T06:20:15;18.80;92.10
35700;DHT22;21818;51.078;12.108;2022-10-17T06:22:40;18.90;91.90
35700;DHT22;21818;51.078;12.108;2022-10-17T06:25:06;18.90;91.90
35700;DHT22;21818;51.078;12.108;2022-10-17T06:27:32;19.00;91.80
35700;DHT22;21818;51.078;12.108;2022-10-17T06:29:57;18.90;91.70
35700;DHT22;21818;51.078;12.108;2022-10-17T06:32:23;19.00;91.70
35700;DHT22;21818;51.078;12.108;2022-10-17T06:34:48;19.00;91.70
35700;DHT22;21818;51.078;12.108;2022-10-17T06:37:14;19.00;91.70
35700;DHT22;21818;51.078;12.108;2022-10-17T06:39:40;19.00;91.70
35700;DHT22;21818;51.078;12.108;2022-10-17T06:42:05;19.00;91.70
35700;DHT22;21818;51.078;12.108;2022-10-17T06:44:31;19.00;91.60
35700;DHT22;21818;51.078;12.108;2022-10-17T06:46:57;18.90;91.60
35700;DHT22;21818;51.078;12.108;2022-10-17T06:49:23;19.00;91.70
35700;DHT22;21818;51.078;12.108;2022-10-17T06:51:49;19.00;91.70
35700;DHT22;21818;51.078;12.108;2022-10-17T06:54:15;19.00;91.80
35700;DHT22;21818;51.078;12.108;2022-10-17T06:56:40;19.00;91.60
35700;DHT22;21818;51.078;12.108;2022-10-17T06:59:08;19.00;91.50
35700;DHT22;21818;51.078;12.108;2022-10-17T07:01:34;19.10;91.50
35700;DHT22;21818;51.078;12.108;2022-10-17T07:03:59;19.10;91.50
35700;DHT22;21818;51.078;12.108;2022-10-17T07:06:25;19.10;91.40
35700;DHT22;21818;51.078;12.108;2022-10-17T07:08:51;19.10;91.40
35700;DHT22;21818;51.078;12.108;2022-10-17T07:11:19;19.20;91.40
35700;DHT22;21818;51.078;12.108;2022-10-17T07:13:45;19.20;91.30
35700;DHT22;21818;51.078;12.108;2022-10-17T07:16:12;19.20;91.20
35700;DHT22;21818;51.078;12.108;2022-10-17T07:18:38;19.20;91.20
35700;DHT22;21818;51.078;12.108;2022-10-17T07:21:04;19.20;91.10
35700;DHT22;21818;51.078;12.108;2022-10-17T07:23:30;19.30;91.20
35700;DHT22;21818;51.078;12.108;2022-10-17T07:26:04;19.30;91.10
35700;DHT22;21818;51.078;12.108;2022-10-17T07:28:34;19.20;91.10
35700;DHT22;21818;51.078;12.108;2022-10-17T07:31:05;19.30;91.10
35700;DHT22;21818;51.078;12.108;2022-10-17T07:33:31;19.30;91.10
35700;DHT22;21818;51.078;12.108;2022-10-17T07:35:58;19.30;91.10
35700;DHT22;21818;51.078;12.108;2022-10-17T07:38:24;19.30;91.10
35700;DHT22;21818;51.078;12.108;2022-10-17T07:40:58;19.30;91.00
35700;DHT22;21818;51.078;12.108;2022-10-17T07:43:25;19.40;91.00
35700;DHT22;21818;51.078;12.108;2022-10-17T07:45:51;19.40;91.00
35700;DHT22;21818;51.078;12.108;2022-10-17T07:48:17;19.40;90.90
35700;DHT22;21818;51.078;12.108;2022-10-17T07:50:43;19.40;91.00
35700;DHT22;21818;51.078;12.108;2022-10-17T07:53:09;19.40;90.90
35700;DHT22;21818;51.078;12.108;2022-10-17T07:55:39;19.50;90.90
35700;DHT22;21818;51.078;12.108;2022-10-17T07:58:05;19.40;90.90
35700;DHT22;21818;51.078;12.108;2022-10-17T08:00:31;19.50;90.90
35700;DHT22;21818;51.078;12.108;2022-10-17T08:02:57;19.50;90.90
35700;DHT22;21818;51.078;12.108;2022-10-17T08:05:22;19.50;90.90
35700;DHT22;21818;51.078;12.108;2022-10-17T08:07:48;19.50;90.90
35700;DHT22;21818;51.078;12.108;2022-10-17T08:10:14;19.50;90.80
35700;DHT22;21818;51.078;12.108;2022-10-17T08:12:40;19.50;90.80
35700;DHT22;21818;51.078;12.108;2022-10-17T08:15:06;19.50;90.80
35700;DHT22;21818;51.078;12.108;2022-10-17T08:17:36;19.50;90.80
35700;DHT22;21818;51.078;12.108;2022-10-17T08:20:04;19.60;91.10
35700;DHT22;21818;51.078;12.108;2022-10-17T08:22:30;19.60;90.90
35700;DHT22;21818;51.078;12.108;2022-10-17T08:24:55;19.60;90.90
35700;DHT22;21818;51.078;12.108;2022-10-17T08:27:21;19.60;90.90
35700;DHT22;21818;51.078;12.108;2022-10-17T08:29:50;19.60;90.90
35700;DHT22;21818;51.078;12.108;2022-10-17T08:32:24;19.60;90.80
35700;DHT22;21818;51.078;12.108;2022-10-17T08:34:51;19.60;90.80
35700;DHT22;21818;51.078;12.108;2022-10-17T08:37:17;19.70;90.80
35700;DHT22;21818;51.078;12.108;2022-10-17T08:39:43;19.70;90.80
35700;DHT22;21818;51.078;12.108;2022-10-17T08:47:38;19.80;90.70
35700;DHT22;21818;51.078;12.108;2022-10-17T08:50:14;19.80;90.60
35700;DHT22;21818;51.078;12.108;2022-10-17T08:52:50;19.80;90.60
35700;DHT22;21818;51.078;12.108;2022-10-17T08:55:32;19.80;90.60
35700;DHT22;21818;51.078;12.108;2022-10-17T08:58:00;19.90;90.70
35700;DHT22;21818;51.078;12.108;2022-10-17T09:00:27;19.90;90.60
35700;DHT22;21818;51.078;12.108;2022-10-17T09:03:33;19.90;90.60
35700;DHT22;21818;51.078;12.108;2022-10-17T09:06:20;19.90;90.50
35700;DHT22;21818;51.078;12.108;2022-10-17T09:17:17;19.90;90.40
35700;DHT22;21818;51.078;12.108;2022-10-17T09:19:58;19.90;90.40
35700;DHT22;21818;51.078;12.108;2022-10-17T09:22:28;20.00;90.40
35700;DHT22;21818;51.078;12.108;2022-10-17T09:25:00;20.00;90.40
35700;DHT22;21818;51.078;12.108;2022-10-17T09:32:56;20.10;90.30
35700;DHT22;21818;51.078;12.108;2022-10-17T09:35:22;20.10;90.20
35700;DHT22;21818;51.078;12.108;2022-10-17T09:37:48;20.10;90.30
35700;DHT22;21818;51.078;12.108;2022-10-17T09:40:28;20.10;90.30
35700;DHT22;21818;51.078;12.108;2022-10-17T09:42:56;20.10;90.20
35700;DHT22;21818;51.078;12.108;2022-10-17T09:45:23;20.10;90.10
35700;DHT22;21818;51.078;12.108;2022-10-17T09:50:32;20.10;90.00
35700;DHT22;21818;51.078;12.108;2022-10-17T09:53:35;20.20;90.30
35700;DHT22;21818;51.078;12.108;2022-10-17T09:56:07;20.20;89.90
35700;DHT22;21818;51.078;12.108;2022-10-17T09:58:59;20.20;90.00
35700;DHT22;21818;51.078;12.108;2022-10-17T10:01:29;20.20;89.90
35700;DHT22;21818;51.078;12.108;2022-10-17T10:04:13;20.20;89.90
35700;DHT22;21818;51.078;12.108;2022-10-17T10:06:40;20.30;89.80
35700;DHT22;21818;51.078;12.108;2022-10-17T10:09:21;20.30;89.80
35700;DHT22;21818;51.078;12.108;2022-10-17T10:11:56;20.30;89.80
35700;DHT22;21818;51.078;12.108;2022-10-17T10:14:28;20.30;89.80
35700;DHT22;21818;51.078;12.108;2022-10-17T10:16:54;20.30;89.70
35700;DHT22;21818;51.078;12.108;2022-10-17T10:19:36;20.40;89.70
35700;DHT22;21818;51.078;12.108;2022-10-17T10:22:14;20.30;89.60
35700;DHT22;21818;51.078;12.108;2022-10-17T10:24:40;20.40;89.70
35700;DHT22;21818;51.078;12.108;2022-10-17T10:27:13;20.40;89.70
35700;DHT22;21818;51.078;12.108;2022-10-17T10:34:36;20.40;89.50
35700;DHT22;21818;51.078;12.108;2022-10-17T10:37:05;20.40;89.50
35700;DHT22;21818;51.078;12.108;2022-10-17T10:39:48;20.40;89.50
35700;DHT22;21818;51.078;12.108;2022-10-17T10:44:51;20.50;89.40
35700;DHT22;21818;51.078;12.108;2022-10-17T10:49:44;20.60;89.40
35700;DHT22;21818;51.078;12.108;2022-10-17T10:52:22;20.60;89.40
35700;DHT22;21818;51.078;12.108;2022-10-17T10:55:04;20.60;89.40
35700;DHT22;21818;51.078;12.108;2022-10-17T10:57:35;20.60;89.30
35700;DHT22;21818;51.078;12.108;2022-10-17T11:13:23;20.70;89.00
35700;DHT22;21818;51.078;12.108;2022-10-17T11:18:34;20.90;88.90
35700;DHT22;21818;51.078;12.108;2022-10-17T11:21:09;20.90;88.80
35700;DHT22;21818;51.078;12.108;2022-10-17T11:23:52;20.90;88.70
35700;DHT22;21818;51.078;12.108;2022-10-17T11:26:25;20.90;88.60
35700;DHT22;21818;51.078;12.108;2022-10-17T11:28:53;21.00;88.60
35700;DHT22;21818;51.078;12.108;2022-10-17T11:31:21;21.00;88.50
35700;DHT22;21818;51.078;12.108;2022-10-17T11:36:45;21.10;88.30
35700;DHT22;21818;51.078;12.108;2022-10-17T11:39:18;21.10;88.10
35700;DHT22;21818;51.078;12.108;2022-10-17T11:41:51;21.20;88.00
35700;DHT22;21818;51.078;12.108;2022-10-17T11:46:59;21.30;87.70
35700;DHT22;21818;51.078;12.108;2022-10-17T11:49:34;21.30;87.60
35700;DHT22;21818;51.078;12.108;2022-10-17T11:54:50;21.40;87.30
35700;DHT22;21818;51.078;12.108;2022-10-17T12:02:50;21.50;87.10
35700;DHT22;21818;51.078;12.108;2022-10-17T12:05:41;21.60;87.10
35700;DHT22;21818;51.078;12.108;2022-10-17T12:08:11;21.60;86.90
35700;DHT22;21818;51.078;12.108;2022-10-17T12:13:48;21.70;86.70
35700;DHT22;21818;51.078;12.108;2022-10-17T12:19:13;21.70;86.80
35700;DHT22;21818;51.078;12.108;2022-10-17T12:24:44;21.80;86.60
35700;DHT22;21818;51.078;12.108;2022-10-17T12:27:35;21.80;86.50
35700;DHT22;21818;51.078;12.108;2022-10-17T12:35:26;21.80;86.50
35700;DHT22;21818;51.078;12.108;2022-10-17T12:45:50;21.90;86.00
35700;DHT22;21818;51.078;12.108;2022-10-17T12:56:36;22.00;85.40
35700;DHT22;21818;51.078;12.108;2022-10-17T12:59:26;22.10;85.50
35700;DHT22;21818;51.078;12.108;2022-10-17T13:02:00;22.10;85.10
35700;DHT22;21818;51.078;12.108;2022-10-17T13:04:27;22.10;85.10
35700;DHT22;21818;51.078;12.108;2022-10-17T13:06:56;22.10;85.10
35700;DHT22;21818;51.078;12.108;2022-10-17T13:11:51;22.20;84.70
35700;DHT22;21818;51.078;12.108;2022-10-17T13:14:20;22.30;84.60
35700;DHT22;21818;51.078;12.108;2022-10-17T13:17:04;22.30;84.40
35700;DHT22;21818;51.078;12.108;2022-10-17T13:19:42;22.40;84.20
35700;DHT22;21818;51.078;12.108;2022-10-17T13:22:24;22.40;84.00
35700;DHT22;21818;51.078;12.108;2022-10-17T13:24:51;22.40;83.90
35700;DHT22;21818;51.078;12.108;2022-10-17T13:27:29;22.50;83.90
35700;DHT22;21818;51.078;12.108;2022-10-17T13:29:57;22.50;83.60
35700;DHT22;21818;51.078;12.108;2022-10-17T13:32:24;22.50;83.60
35700;DHT22;21818;51.078;12.108;2022-10-17T13:35:10;22.50;83.40
35700;DHT22;21818;51.078;12.108;2022-10-17T13:37:36;22.50;83.00
35700;DHT22;21818;51.078;12.108;2022-10-17T13:40:04;22.60;83.20
35700;DHT22;21818;51.078;12.108;2022-10-17T13:42:38;22.60;83.00
35700;DHT22;21818;51.078;12.108;2022-10-17T13:45:20;22.60;83.30
35700;DHT22;21818;51.078;12.108;2022-10-17T13:47:47;22.60;82.70
35700;DHT22;21818;51.078;12.108;2022-10-17T13:50:37;22.70;82.70
35700;DHT22;21818;51.078;12.108;2022-10-17T13:53:31;22.70;82.40
35700;DHT22;21818;51.078;12.108;2022-10-17T13:58:24;22.70;82.40
35700;DHT22;21818;51.078;12.108;2022-10-17T14:00:50;22.70;82.30
35700;DHT22;21818;51.078;12.108;2022-10-17T14:03:19;22.80;82.20
35700;DHT22;21818;51.078;12.108;2022-10-17T14:06:03;22.80;82.00
35700;DHT22;21818;51.078;12.108;2022-10-17T14:08:31;22.80;81.90
35700;DHT22;21818;51.078;12.108;2022-10-17T14:10:57;22.80;82.00
35700;DHT22;21818;51.078;12.108;2022-10-17T14:13:29;22.80;81.80
35700;DHT22;21818;51.078;12.108;2022-10-17T14:16:02;22.80;81.70
35700;DHT22;21818;51.078;12.108;2022-10-17T14:18:31;22.80;81.50
35700;DHT22;21818;51.078;12.108;2022-10-17T14:20:57;22.90;81.50
35700;DHT22;21818;51.078;12.108;2022-10-17T14:23:39;22.90;81.30
35700;DHT22;21818;51.078;12.108;2022-10-17T14:26:10;22.90;81.10
35700;DHT22;21818;51.078;12.108;2022-10-17T14:28:36;22.90;81.10
35700;DHT22;21818;51.078;12.108;2022-10-17T14:31:22;23.00;81.00
35700;DHT22;21818;51.078;12.108;2022-10-17T14:33:51;23.00;80.80
35700;DHT22;21818;51.078;12.108;2022-10-17T14:36:19;23.00;80.80
35700;DHT22;21818;51.078;12.108;2022-10-17T14:38:49;23.00;80.80
35700;DHT22;21818;51.078;12.108;2022-10-17T14:41:24;23.00;80.60
35700;DHT22;21818;51.078;12.108;2022-10-17T14:43:56;23.00;80.60
35700;DHT22;21818;51.078;12.108;2022-10-17T14:46:22;23.10;80.60
35700;DHT22;21818;51.078;12.108;2022-10-17T14:49:00;23.00;80.50
35700;DHT22;21818;51.078;12.108;2022-10-17T14:51:27;23.10;80.50
35700;DHT22;21818;51.078;12.108;2022-10-17T14:54:03;23.10;80.60
35700;DHT22;21818;51.078;12.108;2022-10-17T14:56:40;23.10;80.40
35700;DHT22;21818;51.078;12.108;2022-10-17T14:59:07;23.10;80.40
35700;DHT22;21818;51.078;12.108;2022-10-17T15:01:35;23.10;80.50
35700;DHT22;21818;51.078;12.108;2022-10-17T15:04:00;23.10;80.50
35700;DHT22;21818;51.078;12.108;2022-10-17T15:06:29;23.10;80.50
35700;DHT22;21818;51.078;12.108;2022-10-17T15:08:55;23.10;80.50
35700;DHT22;21818;51.078;12.108;2022-10-17T15:11:21;23.10;80.50
35700;DHT22;21818;51.078;12.108;2022-10-17T15:13:47;23.00;80.40
35700;DHT22;21818;51.078;12.108;2022-10-17T15:16:24;23.00;80.40
35700;DHT22;21818;51.078;12.108;2022-10-17T15:18:50;23.00;80.40
35700;DHT22;21818;51.078;12.108;2022-10-17T15:21:22;23.00;80.50
35700;DHT22;21818;51.078;12.108;2022-10-17T15:23:48;23.00;80.50
35700;DHT22;21818;51.078;12.108;2022-10-17T15:28:42;23.00;80.40
35700;DHT22;21818;51.078;12.108;2022-10-17T15:31:13;23.00;80.50
35700;DHT22;21818;51.078;12.108;2022-10-17T15:33:39;23.00;80.50
35700;DHT22;21818;51.078;12.108;2022-10-17T15:36:19;23.00;80.60
35700;DHT22;21818;51.078;12.108;2022-10-17T15:38:46;23.00;80.60
35700;DHT22;21818;51.078;12.108;2022-10-17T15:41:12;22.90;80.50
35700;DHT22;21818;51.078;12.108;2022-10-17T15:43:37;22.90;80.80
35700;DHT22;21818;51.078;12.108;2022-10-17T15:46:03;22.90;80.80
35700;DHT22;21818;51.078;12.108;2022-10-17T15:48:30;22.90;80.90
35700;DHT22;21818;51.078;12.108;2022-10-17T15:50:56;22.90;80.90
35700;DHT22;21818;51.078;12.108;2022-10-17T15:53:22;22.90;80.90
35700;DHT22;21818;51.078;12.108;2022-10-17T15:55:48;22.80;80.90
35700;DHT22;21818;51.078;12.108;2022-10-17T15:58:16;22.80;80.90
35700;DHT22;21818;51.078;12.108;2022-10-17T16:00:41;22.80;81.00
35700;DHT22;21818;51.078;12.108;2022-10-17T16:03:07;22.80;81.00
35700;DHT22;21818;51.078;12.108;2022-10-17T16:05:33;22.80;81.00
35700;DHT22;21818;51.078;12.108;2022-10-17T16:07:59;22.70;81.00
35700;DHT22;21818;51.078;12.108;2022-10-17T16:10:24;22.70;81.10
35700;DHT22;21818;51.078;12.108;2022-10-17T16:12:51;22.70;81.10
35700;DHT22;21818;51.078;12.108;2022-10-17T16:15:19;22.70;81.10
35700;DHT22;21818;51.078;12.108;2022-10-17T16:17:47;22.70;81.10
35700;DHT22;21818;51.078;12.108;2022-10-17T16:20:14;22.60;81.10
35700;DHT22;21818;51.078;12.108;2022-10-17T16:22:41;22.60;81.20
35700;DHT22;21818;51.078;12.108;2022-10-17T16:25:22;22.60;81.20
35700;DHT22;21818;51.078;12.108;2022-10-17T16:27:49;22.60;81.20
35700;DHT22;21818;51.078;12.108;2022-10-17T16:30:15;22.60;81.20
35700;DHT22;21818;51.078;12.108;2022-10-17T16:32:42;22.50;81.30
35700;DHT22;21818;51.078;12.108;2022-10-17T16:35:09;22.50;81.30
35700;DHT22;21818;51.078;12.108;2022-10-17T16:37:35;22.50;81.30
35700;DHT22;21818;51.078;12.108;2022-10-17T16:40:01;22.50;81.90
35700;DHT22;21818;51.078;12.108;2022-10-17T16:42:28;22.50;81.40
35700;DHT22;21818;51.078;12.108;2022-10-17T16:44:54;22.50;81.40
35700;DHT22;21818;51.078;12.108;2022-10-17T16:47:20;22.50;81.40
35700;DHT22;21818;51.078;12.108;2022-10-17T16:49:45;22.50;81.50
35700;DHT22;21818;51.078;12.108;2022-10-17T16:52:11;22.50;81.50
35700;DHT22;21818;51.078;12.108;2022-10-17T16:54:37;22.50;81.50
35700;DHT22;21818;51.078;12.108;2022-10-17T16:57:03;22.50;81.60
35700;DHT22;21818;51.078;12.108;2022-10-17T16:59:29;22.50;81.60
35700;DHT22;21818;51.078;12.108;2022-10-17T17:01:55;22.40;81.60
35700;DHT22;21818;51.078;12.108;2022-10-17T17:04:20;22.40;81.60
35700;DHT22;21818;51.078;12.108;2022-10-17T17:06:46;22.40;81.60
35700;DHT22;21818;51.078;12.108;2022-10-17T17:09:12;22.40;81.70
35700;DHT22;21818;51.078;12.108;2022-10-17T17:11:37;22.40;81.80
35700;DHT22;21818;51.078;12.108;2022-10-17T17:14:04;22.40;81.70
35700;DHT22;21818;51.078;12.108;2022-10-17T17:16:31;22.40;81.80
35700;DHT22;21818;51.078;12.108;2022-10-17T17:19:00;22.30;81.70
35700;DHT22;21818;51.078;12.108;2022-10-17T17:21:26;22.30;81.80
35700;DHT22;21818;51.078;12.108;2022-10-17T17:23:53;22.30;81.70
35700;DHT22;21818;51.078;12.108;2022-10-17T17:26:21;22.30;81.80
35700;DHT22;21818;51.078;12.108;2022-10-17T17:28:48;22.30;82.30